Time;durP1;ratioP1;P1;durP2;ratioP2;P2;SDS_P1;SDS_P2;PMS_P1;PMS_P2;Temp;Humidity;BMP_temperature;BMP_pressure;BME280_temperature;BME280_humidity;BME280_pressure;Samples;Min_cycle;Max_cycle;Signal;HPM_P1;HPM_P2
2021/06/07 00:00:17;;;;;;;3.20;2.14;;;;;;;17.23;65.36;100343.70;436911;118;925429;-69
2021/06/07 00:01:28;;;;;;;5.33;2.23;;;;;;;17.22;65.47;100346.71;429600;120;924153;-70
2021/06/07 00:02:35;;;;;;;3.09;2.43;;;;;;;17.20;65.54;100343.41;438665;119;923372;-70
2021/06/07 00:03:39;;;;;;;2.37;2.04;;;;;;;17.17;65.71;100343.92;439516;118;922630;-70
2021/06/07 00:04:42;;;;;;;3.61;2.43;;;;;;;17.16;65.84;100343.09;426903;123;930820;-70
2021/06/07 00:05:46;;;;;;;3.55;2.14;;;;;;;17.17;65.89;100343.92;436179;120;922465;-70
2021/06/07 00:06:50;;;;;;;2.49;2.04;;;;;;;17.19;65.97;100347.25;435627;118;923028;-69
2021/06/07 00:07:54;;;;;;;3.39;2.36;;;;;;;17.20;66.00;100343.41;435018;120;922656;-68
2021/06/07 00:08:57;;;;;;;3.76;2.15;;;;;;;17.21;65.88;100347.80;435336;120;922576;-71
2021/06/07 00:10:01;;;;;;;5.31;2.16;;;;;;;17.21;66.01;100339.53;435468;119;922452;-69
2021/06/07 00:11:05;;;;;;;2.76;1.93;;;;;;;17.21;66.15;100340.37;436900;118;923031;-69
2021/06/07 00:12:16;;;;;;;3.22;2.10;;;;;;;17.24;66.05;100336.27;436075;118;923333;-70
2021/06/07 00:13:20;;;;;;;;;;;;;;;17.24;65.92;100339.02;439460;118;922021;-69
2021/06/07 00:14:27;;;;;;;2.91;2.12;;;;;;;17.26;65.90;100336.81;436371;118;922487;-70
2021/06/07 00:15:31;;;;;;;3.86;1.87;;;;;;;17.25;65.81;100332.42;436345;118;922480;-70
2021/06/07 00:16:36;;;;;;;2.55;1.63;;;;;;;17.25;65.83;100337.94;436557;118;922649;-71
2021/06/07 00:17:40;;;;;;;3.92;2.16;;;;;;;17.25;65.75;100340.69;436353;118;923053;-71
2021/06/07 00:18:49;;;;;;;3.72;1.86;;;;;;;17.25;65.74;100332.42;436631;119;923068;-71
2021/06/07 00:19:52;;;;;;;2.52;2.19;;;;;;;17.23;65.77;100329.92;436377;118;925451;-71
2021/06/07 00:20:59;;;;;;;3.32;1.66;;;;;;;17.22;65.81;100328.26;436030;119;922619;-70
2021/06/07 00:22:04;;;;;;;3.16;1.76;;;;;;;17.22;65.79;100324.67;437266;120;922463;-69
2021/06/07 00:23:09;;;;;;;2.68;1.79;;;;;;;17.22;65.76;100321.91;439451;118;924117;-72
2021/06/07 00:24:16;;;;;;;4.70;1.76;;;;;;;17.23;65.82;100315.31;440711;118;926407;-69
2021/06/07 00:25:20;;;;;;;2.46;1.63;;;;;;;17.23;65.74;100318.06;440483;118;924469;-69
2021/06/07 00:26:26;;;;;;;3.61;1.74;;;;;;;17.23;65.72;100327.17;441411;118;924179;-70
2021/06/07 00:27:30;;;;;;;2.56;1.81;;;;;;;17.21;65.68;100323.84;439689;118;923874;-70
2021/06/07 00:28:37;;;;;;;3.02;1.94;;;;;;;17.19;65.62;100316.95;438424;118;925167;-69
2021/06/07 00:29:41;;;;;;;2.48;1.70;;;;;;;17.16;65.66;100325.72;433289;120;931604;-70
2021/06/07 00:30:47;;;;;;;3.36;1.65;;;;;;;17.12;65.60;100325.44;434787;120;924095;-70
2021/06/07 00:31:51;;;;;;;2.46;1.58;;;;;;;17.09;65.69;100331.48;439004;118;924130;-67
2021/06/07 00:32:56;;;;;;;4.36;2.05;;;;;;;17.07;65.78;100328.16;438373;118;924591;-71
2021/06/07 00:34:00;;;;;;;2.13;1.63;;;;;;;17.04;65.91;100318.48;439007;118;930398;-70
2021/06/07 00:35:04;;;;;;;3.45;1.84;;;;;;;17.02;66.09;100328.95;438013;118;926187;-70
2021/06/07 00:36:12;;;;;;;2.64;1.70;;;;;;;17.00;66.16;100325.61;438646;119;924450;-70
2021/06/07 00:37:15;;;;;;;3.31;1.83;;;;;;;17.00;66.24;100324.78;439167;118;922636;-71
2021/06/07 00:38:20;;;;;;;2.71;1.99;;;;;;;16.99;66.28;100331.38;432264;120;924022;-70
2021/06/07 00:39:24;;;;;;;2.30;2.13;;;;;;;16.98;66.40;100330.55;438580;118;930330;-70
2021/06/07 00:40:29;;;;;;;2.79;1.93;;;;;;;16.97;66.36;100326.16;440006;118;923021;-70
2021/06/07 00:41:33;;;;;;;3.03;1.91;;;;;;;16.95;66.33;100333.00;439807;118;923062;-70
2021/06/07 00:42:37;;;;;;;4.09;1.82;;;;;;;16.91;66.39;100327.20;440335;118;922933;-70
2021/06/07 00:43:41;;;;;;;4.61;1.68;;;;;;;16.90;66.57;100335.72;431506;120;922918;-71
2021/06/07 00:44:46;;;;;;;1.94;1.73;;;;;;;16.89;66.61;100332.13;432071;120;930781;-70
2021/06/07 00:45:50;;;;;;;3.58;1.90;;;;;;;16.87;66.64;100328.80;431786;120;930409;-70
2021/06/07 00:46:54;;;;;;;2.78;2.02;;;;;;;16.84;66.67;100332.09;435271;120;922637;-68
2021/06/07 00:48:09;;;;;;;3.95;1.71;;;;;;;16.81;66.78;100332.63;434703;120;924149;-70
2021/06/07 00:49:13;;;;;;;4.62;2.10;;;;;;;16.76;66.86;100340.81;441028;118;922517;-70
2021/06/07 00:50:21;;;;;;;3.50;3.05;;;;;;;16.70;66.97;100341.88;430733;120;922611;-70
2021/06/07 00:51:25;;;;;;;6.44;5.61;;;;;;;16.66;67.13;100335.22;428662;120;923267;-69
2021/06/07 00:52:29;;;;;;;16.28;12.75;;;;;;;16.62;67.31;100340.42;429587;120;924163;-69
2021/06/07 00:53:32;;;;;;;17.01;15.40;;;;;;;16.58;67.43;100336.50;440427;118;924075;-68
2021/06/07 00:54:36;;;;;;;16.47;14.82;;;;;;;16.56;67.51;100337.84;439157;118;922668;-70
2021/06/07 00:55:51;;;;;;;18.76;16.73;;;;;;;16.52;67.62;100337.54;438511;118;922705;-71
2021/06/07 00:56:54;;;;;;;19.79;16.70;;;;;;;16.49;67.73;100337.21;439213;118;930690;-71
2021/06/07 00:57:58;;;;;;;14.68;13.03;;;;;;;16.44;67.91;100339.91;438513;118;923484;-70
2021/06/07 00:59:08;;;;;;;15.57;14.03;;;;;;;16.41;67.98;100344.03;438899;118;930317;-71
2021/06/07 01:00:14;;;;;;;12.21;10.82;;;;;;;16.39;68.13;100335.19;439303;118;922747;-71
2021/06/07 01:01:21;;;;;;;16.40;10.94;;;;;;;16.37;68.21;100336.55;438585;118;922531;-70
2021/06/07 01:02:25;;;;;;;11.18;9.40;;;;;;;16.35;68.25;100345.06;439014;118;922891;-69
2021/06/07 01:03:29;;;;;;;9.03;8.06;;;;;;;16.35;68.29;100341.48;439770;118;922538;-70
2021/06/07 01:04:34;;;;;;;9.02;8.07;;;;;;;16.35;68.31;100344.23;439368;118;930630;-71
2021/06/07 01:05:38;;;;;;;9.61;8.58;;;;;;;16.34;68.34;100343.39;439514;119;922928;-70
2021/06/07 01:06:42;;;;;;;7.38;6.68;;;;;;;16.34;68.31;100342.55;439423;118;922525;-71
2021/06/07 01:07:45;;;;;;;7.09;5.93;;;;;;;16.33;68.37;100341.72;439885;118;930587;-69
2021/06/07 01:08:49;;;;;;;7.73;5.26;;;;;;;16.33;68.43;100340.89;440292;118;922484;-71
2021/06/07 01:09:53;;;;;;;7.02;5.01;;;;;;;16.33;68.37;100340.89;440465;118;922990;-70
2021/06/07 01:10:57;;;;;;;6.72;5.32;;;;;;;16.34;68.35;100337.05;441029;118;923321;-71
2021/06/07 01:12:01;;;;;;;7.45;4.83;;;;;;;16.34;68.42;100348.06;441375;118;922521;-70
2021/06/07 01:13:08;;;;;;;5.19;4.66;;;;;;;16.35;68.43;100349.73;441012;118;922882;-71
2021/06/07 01:14:11;;;;;;;6.66;5.42;;;;;;;16.33;68.39;100340.89;437282;118;924058;-72
2021/06/07 01:15:16;;;;;;;5.91;5.28;;;;;;;16.30;68.39;100341.42;437053;120;922530;-71
2021/06/07 01:16:22;;;;;;;8.58;5.18;;;;;;;16.27;68.47;100340.84;438518;118;922929;-69
2021/06/07 01:17:27;;;;;;;4.59;3.98;;;;;;;16.26;68.55;100335.61;439606;118;923051;-71
2021/06/07 01:18:32;;;;;;;4.47;3.65;;;;;;;16.26;68.60;100338.37;438094;118;924893;-71
2021/06/07 01:19:36;;;;;;;5.28;3.96;;;;;;;16.26;68.52;100335.61;437885;118;922867;-71
2021/06/07 01:20:40;;;;;;;3.82;3.32;;;;;;;16.23;68.53;100331.45;439309;118;922864;-71
2021/06/07 01:21:45;;;;;;;5.21;3.72;;;;;;;16.22;68.53;100332.53;439576;118;923831;-70
2021/06/07 01:22:52;;;;;;;4.81;3.63;;;;;;;16.21;68.62;100336.36;438594;119;930455;-70
2021/06/07 01:23:56;;;;;;;7.78;3.58;;;;;;;16.21;68.79;100333.61;442077;118;922420;-70
2021/06/07 01:25:00;;;;;;;5.11;4.05;;;;;;;16.22;68.80;100337.20;442502;117;922537;-70
2021/06/07 01:26:06;;;;;;;4.63;3.93;;;;;;;16.22;68.80;100343.53;442185;118;922527;-70
2021/06/07 01:27:11;;;;;;;5.43;3.99;;;;;;;16.24;68.84;100343.28;442304;117;922638;-71
2021/06/07 01:28:17;;;;;;;7.13;3.22;;;;;;;16.24;68.85;100346.03;442166;118;922666;-71
2021/06/07 01:29:21;;;;;;;5.02;3.06;;;;;;;16.23;68.87;100334.20;442705;117;922649;-70
2021/06/07 01:30:30;;;;;;;4.03;3.26;;;;;;;16.23;68.88;100339.70;442262;117;924127;-71
2021/06/07 01:31:34;;;;;;;4.89;3.46;;;;;;;16.24;68.86;100343.28;442833;117;924014;-69
2021/06/07 01:32:38;;;;;;;6.61;2.98;;;;;;;16.26;68.87;100343.87;442186;117;923044;-69
2021/06/07 01:33:45;;;;;;;5.09;3.05;;;;;;;16.26;68.77;100346.63;442361;118;924586;-71
2021/06/07 01:35:22;;;;;;;5.78;4.21;;;;;;;16.25;68.65;100351.29;440676;118;923997;-70
2021/06/07 01:36:48;;;;;;;4.21;3.43;;;;;;;16.22;68.61;100360.03;438120;118;923704;-70
2021/06/07 01:37:55;;;;;;;5.69;3.18;;;;;;;16.14;68.87;100366.01;440308;118;925230;-69
2021/06/07 01:38:59;;;;;;;4.28;3.31;;;;;;;16.10;68.95;100361.25;439535;118;923977;-70
2021/06/07 01:40:07;;;;;;;3.20;2.64;;;;;;;16.07;68.93;100356.28;439427;119;922485;-71
2021/06/07 01:41:13;;;;;;;8.58;2.94;;;;;;;16.05;68.85;100356.52;439985;117;922812;-70
2021/06/07 01:42:17;;;;;;;6.15;3.60;;;;;;;16.03;68.79;100358.72;441086;119;924102;-71
2021/06/07 01:43:22;;;;;;;5.56;3.26;;;;;;;16.01;68.82;100360.05;441510;117;922928;-72
2021/06/07 01:44:26;;;;;;;4.69;3.08;;;;;;;15.99;68.82;100362.24;440442;117;922641;-69
2021/06/07 01:45:32;;;;;;;4.29;3.34;;;;;;;15.96;68.83;100359.98;441229;118;924052;-69
2021/06/07 01:46:37;;;;;;;3.68;2.94;;;;;;;15.92;68.88;100359.67;441176;118;923089;-69
2021/06/07 01:47:41;;;;;;;8.64;3.16;;;;;;;15.89;69.05;100362.92;441575;119;922705;-70
2021/06/07 01:48:45;;;;;;;2.97;2.71;;;;;;;15.87;69.05;100365.11;442426;118;922541;-70
2021/06/07 01:49:48;;;;;;;3.93;3.21;;;;;;;15.83;69.10;100370.27;442119;117;922834;-70
2021/06/07 01:50:56;;;;;;;4.37;3.93;;;;;;;15.81;69.21;100366.13;442124;117;931952;-68
2021/06/07 01:51:59;;;;;;;6.49;3.50;;;;;;;15.79;69.28;100365.53;442264;118;922878;-69
2021/06/07 01:53:05;;;;;;;5.41;3.57;;;;;;;15.76;69.47;100364.14;443597;119;922459;-69
2021/06/07 01:54:08;;;;;;;4.94;4.03;;;;;;;15.77;69.53;100367.70;443815;118;922475;-70
2021/06/07 01:55:22;;;;;;;8.84;3.84;;;;;;;15.77;69.47;100364.95;442582;118;922567;-68
2021/06/07 01:56:27;;;;;;;4.54;3.87;;;;;;;15.76;69.55;100361.39;439079;118;930571;-70
2021/06/07 01:57:30;;;;;;;5.25;3.74;;;;;;;15.77;69.40;100364.95;438572;119;922494;-70
2021/06/07 01:58:35;;;;;;;3.81;3.15;;;;;;;15.77;69.40;100364.95;438821;118;930410;-70
2021/06/07 01:59:38;;;;;;;7.23;4.09;;;;;;;15.79;69.59;100360.88;440194;117;922505;-71
2021/06/07 02:00:52;;;;;;;3.82;3.42;;;;;;;15.79;69.59;100360.88;441022;117;930760;-72
2021/06/07 02:01:56;;;;;;;6.57;3.47;;;;;;;15.80;69.54;100365.30;439158;119;923173;-69
2021/06/07 02:02:59;;;;;;;3.45;2.96;;;;;;;15.80;69.52;100362.55;440551;117;922489;-69
2021/06/07 02:04:04;;;;;;;5.25;3.39;;;;;;;15.80;69.50;100364.45;441016;118;922940;-70
2021/06/07 02:05:08;;;;;;;3.86;3.59;;;;;;;15.80;69.51;100367.20;441060;118;933528;-69
2021/06/07 02:06:15;;;;;;;3.75;3.34;;;;;;;15.79;69.53;100363.63;441545;118;923690;-68
2021/06/07 02:07:19;;;;;;;5.71;4.62;;;;;;;15.78;69.52;100364.70;439887;117;924038;-70
2021/06/07 02:08:23;;;;;;;5.89;4.67;;;;;;;15.77;69.56;100365.78;440196;117;926447;-70
2021/06/07 02:09:28;;;;;;;8.47;6.01;;;;;;;15.77;69.62;100363.03;441503;118;930642;-71
2021/06/07 02:10:37;;;;;;;8.77;5.86;;;;;;;15.76;69.62;100364.14;441888;119;923042;-70
2021/06/07 02:11:40;;;;;;;12.17;7.41;;;;;;;15.74;69.62;100363.55;441277;118;923993;-70
2021/06/07 02:12:44;;;;;;;15.73;7.95;;;;;;;15.74;69.62;100358.06;441780;118;922963;-69
2021/06/07 02:13:50;;;;;;;14.79;9.01;;;;;;;15.72;69.62;100356.63;442856;118;922501;-71
2021/06/07 02:14:53;;;;;;;18.83;9.64;;;;;;;15.71;69.69;100360.50;441978;119;932519;-69
2021/06/07 02:16:03;;;;;;;20.09;10.56;;;;;;;15.70;69.77;100364.32;442267;117;923106;-70
2021/06/07 02:17:07;;;;;;;20.63;10.14;;;;;;;15.68;69.81;100364.56;444107;117;924013;-70
2021/06/07 02:18:11;;;;;;;21.76;11.92;;;;;;;15.68;69.83;100360.98;442454;117;923848;-70
2021/06/07 02:19:15;;;;;;;25.89;12.25;;;;;;;15.67;69.85;100359.31;435740;118;933085;-70
2021/06/07 02:20:22;;;;;;;18.13;11.36;;;;;;;15.67;69.85;100365.65;437323;118;924121;-67
2021/06/07 02:21:27;;;;;;;23.95;11.44;;;;;;;15.68;69.86;100371.98;437383;118;924884;-70
2021/06/07 02:22:37;;;;;;;24.08;11.96;;;;;;;15.69;69.88;100363.48;437805;118;925756;-71
2021/06/07 02:23:41;;;;;;;18.09;10.72;;;;;;;15.70;69.90;100364.32;433883;118;931977;-69
2021/06/07 02:24:45;;;;;;;18.52;9.91;;;;;;;15.72;69.92;100367.62;438151;120;925317;-70
2021/06/07 02:25:49;;;;;;;17.69;9.67;;;;;;;15.74;69.94;100365.47;452367;114;924019;-70
2021/06/07 02:26:54;;;;;;;14.78;8.82;;;;;;;15.77;69.87;100373.20;453004;114;922631;-71
2021/06/07 02:27:57;;;;;;;15.66;8.04;;;;;;;15.78;69.88;100366.62;453495;114;926547;-69
2021/06/07 02:29:10;;;;;;;14.76;8.05;;;;;;;15.80;69.83;100369.95;453918;114;924084;-70
2021/06/07 02:30:18;;;;;;;11.29;6.83;;;;;;;15.82;69.87;100368.59;454108;114;929939;-71
2021/06/07 02:31:22;;;;;;;10.52;6.98;;;;;;;15.86;69.84;100363.44;454207;113;924434;-70
2021/06/07 02:32:27;;;;;;;15.96;6.92;;;;;;;15.90;69.78;100363.75;453659;114;922644;-71
2021/06/07 02:33:31;;;;;;;11.09;5.91;;;;;;;15.93;69.67;100366.02;453124;114;924782;-70
2021/06/07 02:34:37;;;;;;;12.33;6.11;;;;;;;15.95;69.71;100363.81;453025;114;922631;-70
2021/06/07 02:35:41;;;;;;;12.05;6.14;;;;;;;15.98;69.65;100360.58;453657;113;923945;-70
2021/06/07 02:36:45;;;;;;;8.83;5.55;;;;;;;16.01;69.61;100363.63;454401;114;922771;-70
2021/06/07 02:37:51;;;;;;;7.46;5.05;;;;;;;16.03;69.45;100355.97;454434;114;926599;-70
2021/06/07 02:38:56;;;;;;;9.44;5.70;;;;;;;16.06;69.36;100362.86;453894;114;925003;-70
2021/06/07 02:40:01;;;;;;;10.96;5.87;;;;;;;16.07;69.30;100364.53;454181;114;925209;-72
2021/06/07 02:41:05;;;;;;;8.67;6.32;;;;;;;16.09;69.21;100363.20;452077;115;924093;-70
2021/06/07 02:42:11;;;;;;;9.42;6.77;;;;;;;16.09;69.09;100363.20;453038;114;924053;-69
2021/06/07 02:43:16;;;;;;;8.06;6.51;;;;;;;16.11;69.06;100369.25;451903;114;933007;-71
2021/06/07 02:44:22;;;;;;;9.65;6.25;;;;;;;16.12;69.06;100367.34;452966;114;923981;-70
2021/06/07 02:45:28;;;;;;;7.68;6.08;;;;;;;16.12;69.01;100365.42;453472;115;932028;-71
2021/06/07 02:46:34;;;;;;;7.77;5.77;;;;;;;16.13;69.03;100366.26;448379;116;923641;-71
2021/06/07 02:47:40;;;;;;;7.39;5.82;;;;;;;16.13;68.98;100367.09;448599;115;922713;-68
2021/06/07 02:48:44;;;;;;;8.04;6.07;;;;;;;16.15;68.98;100369.59;453696;115;922412;-70
2021/06/07 02:49:48;;;;;;;6.91;5.62;;;;;;;16.16;69.01;100362.98;452808;113;922831;-69
2021/06/07 02:50:52;;;;;;;9.24;5.76;;;;;;;16.16;68.96;100369.31;453467;114;922572;-69
2021/06/07 02:51:55;;;;;;;7.37;5.63;;;;;;;16.17;68.96;100378.40;453106;114;931194;-69
2021/06/07 02:52:59;;;;;;;5.95;5.21;;;;;;;16.18;68.99;100377.32;453758;115;930444;-70
2021/06/07 02:54:04;;;;;;;9.01;5.14;;;;;;;16.18;68.95;100372.66;453692;115;922646;-71
2021/06/07 02:55:08;;;;;;;9.31;5.27;;;;;;;16.20;68.94;100370.48;453756;115;922877;-70
2021/06/07 02:56:13;;;;;;;10.79;5.26;;;;;;;16.22;68.87;100372.95;453881;114;923433;-73
2021/06/07 02:57:16;;;;;;;7.19;4.74;;;;;;;16.23;68.85;100377.38;453817;114;924067;-71
2021/06/07 02:58:22;;;;;;;5.24;4.74;;;;;;;16.23;68.83;100367.20;453587;115;930575;-71
2021/06/07 02:59:25;;;;;;;5.38;4.54;;;;;;;16.24;68.77;100368.87;453019;114;922833;-69
2021/06/07 03:00:36;;;;;;;9.27;5.01;;;;;;;16.26;68.75;100374.12;452832;113;923076;-70
2021/06/07 03:01:40;;;;;;;5.91;4.98;;;;;;;16.30;68.76;100375.27;454180;115;922746;-71
2021/06/07 03:02:44;;;;;;;5.50;4.88;;;;;;;16.30;68.76;100375.27;454576;115;922541;-70
2021/06/07 03:03:48;;;;;;;5.67;4.39;;;;;;;16.33;68.75;100368.41;453790;113;930579;-71
2021/06/07 03:04:52;;;;;;;6.54;4.52;;;;;;;16.37;68.77;100377.83;453834;114;926649;-69
2021/06/07 03:05:59;;;;;;;5.61;4.56;;;;;;;16.39;68.68;100376.47;452604;113;924481;-69
2021/06/07 03:07:04;;;;;;;6.79;4.74;;;;;;;16.41;68.65;100374.30;452856;114;925345;-70
2021/06/07 03:08:09;;;;;;;6.83;5.01;;;;;;;16.44;68.61;100381.19;453027;114;926753;-70
2021/06/07 03:09:13;;;;;;;7.28;4.71;;;;;;;16.45;68.56;100383.70;452960;114;922476;-71
2021/06/07 03:10:18;;;;;;;5.65;4.72;;;;;;;16.47;68.69;100375.19;453172;114;922563;-69
2021/06/07 03:11:21;;;;;;;5.71;4.51;;;;;;;16.47;68.69;100375.19;453730;114;923457;-71
2021/06/07 03:12:25;;;;;;;5.81;3.98;;;;;;;16.50;68.48;100377.41;452326;114;923039;-72
2021/06/07 03:13:29;;;;;;;6.36;4.34;;;;;;;16.51;68.38;100379.08;453440;114;923038;-72
2021/06/07 03:14:33;;;;;;;5.50;4.21;;;;;;;16.53;68.27;100374.16;454390;113;924480;-69
2021/06/07 03:15:37;;;;;;;7.86;4.91;;;;;;;16.52;68.25;100384.33;452749;113;924030;-69
2021/06/07 03:16:41;;;;;;;4.82;4.28;;;;;;;16.53;68.19;100374.16;453666;113;922702;-70
2021/06/07 03:17:46;;;;;;;5.10;4.34;;;;;;;16.55;68.24;100378.30;454113;114;933324;-70
2021/06/07 03:18:49;;;;;;;6.05;4.94;;;;;;;16.57;68.22;100386.30;453977;114;922492;-70
2021/06/07 03:19:53;;;;;;;4.90;4.01;;;;;;;16.60;68.20;100383.05;453267;115;924125;-69
2021/06/07 03:20:57;;;;;;;6.09;4.51;;;;;;;16.61;68.18;100381.97;453793;115;930481;-71
2021/06/07 03:22:01;;;;;;;10.11;4.97;;;;;;;16.63;68.15;100380.63;454942;115;922848;-71
2021/06/07 03:23:08;;;;;;;6.80;5.05;;;;;;;16.65;68.03;100377.59;453983;114;930582;-70
2021/06/07 03:24:13;;;;;;;6.26;4.91;;;;;;;16.67;68.01;100380.93;453421;115;922881;-70
2021/06/07 03:25:17;;;;;;;5.20;4.71;;;;;;;16.68;68.05;100380.68;453487;114;924521;-71
2021/06/07 03:26:21;;;;;;;8.22;5.48;;;;;;;16.69;68.00;100378.76;453520;115;924304;-67
2021/06/07 03:27:29;;;;;;;6.15;4.74;;;;;;;16.71;68.02;100372.97;454317;114;922515;-69
2021/06/07 03:28:35;;;;;;;6.14;4.89;;;;;;;16.73;67.93;100377.14;452125;115;924015;-70
2021/06/07 03:29:39;;;;;;;6.53;5.05;;;;;;;16.76;67.76;100373.05;436988;118;922611;-70
2021/06/07 03:30:44;;;;;;;4.55;4.10;;;;;;;16.74;67.82;100370.55;438217;115;923599;-71
2021/06/07 03:31:48;;;;;;;5.22;4.21;;;;;;;16.74;67.83;100381.56;449861;116;930423;-71
2021/06/07 03:32:52;;;;;;;6.23;3.79;;;;;;;16.75;67.81;100377.72;450323;115;931961;-70
2021/06/07 03:33:57;;;;;;;5.67;3.75;;;;;;;16.76;67.71;100373.85;450288;116;922809;-69
2021/06/07 03:35:01;;;;;;;4.67;3.60;;;;;;;16.79;67.81;100375.27;451474;115;923040;-70
2021/06/07 03:36:06;;;;;;;5.28;3.61;;;;;;;16.80;67.64;100375.02;450790;115;923939;-70
2021/06/07 03:37:10;;;;;;;11.00;4.18;;;;;;;16.83;67.53;100379.16;451089;115;923963;-71
2021/06/07 03:38:15;;;;;;;8.21;3.54;;;;;;;16.84;67.43;100380.83;450351;115;930508;-67
2021/06/07 03:39:19;;;;;;;4.97;3.56;;;;;;;16.83;67.38;100370.89;451672;115;926026;-69
2021/06/07 03:40:28;;;;;;;6.53;3.77;;;;;;;16.83;67.32;100366.22;452199;115;924104;-70
2021/06/07 03:41:32;;;;;;;8.21;4.04;;;;;;;16.82;67.36;100372.81;452185;115;924695;-69
2021/06/07 03:42:37;;;;;;;6.94;3.86;;;;;;;16.81;67.42;100373.09;451848;114;923068;-68
2021/06/07 03:43:40;;;;;;;4.43;3.71;;;;;;;16.81;67.49;100370.34;452458;115;922725;-69
2021/06/07 03:44:44;;;;;;;5.66;4.44;;;;;;;16.80;67.45;100375.02;452806;114;923117;-70
2021/06/07 03:45:47;;;;;;;5.21;4.55;;;;;;;16.79;67.39;100370.59;453454;116;922531;-68
2021/06/07 03:46:51;;;;;;;7.48;4.66;;;;;;;16.80;67.39;100375.02;453484;114;930946;-70
2021/06/07 03:47:55;;;;;;;5.31;3.93;;;;;;;16.80;67.36;100369.52;453685;115;922756;-70
2021/06/07 03:48:58;;;;;;;6.58;5.23;;;;;;;16.80;67.42;100369.52;453207;114;930487;-70
2021/06/07 03:50:05;;;;;;;7.32;4.86;;;;;;;16.80;67.35;100364.00;454378;116;930672;-69
2021/06/07 03:51:09;;;;;;;15.20;5.15;;;;;;;16.81;67.34;100371.17;451076;114;922485;-70
2021/06/07 03:52:13;;;;;;;6.29;5.44;;;;;;;16.82;67.32;100366.47;449950;115;922525;-68
2021/06/07 03:53:16;;;;;;;11.13;5.62;;;;;;;16.83;67.27;100370.89;451128;114;930548;-69
2021/06/07 03:54:20;;;;;;;9.79;6.26;;;;;;;16.84;67.20;100367.89;449312;116;930609;-70
2021/06/07 03:55:25;;;;;;;8.88;6.51;;;;;;;16.85;67.28;100366.80;449529;114;922506;-69
2021/06/07 03:56:28;;;;;;;9.66;6.51;;;;;;;16.87;67.35;100370.10;450246;115;924551;-68
2021/06/07 03:57:32;;;;;;;8.81;7.04;;;;;;;16.89;67.32;100373.44;447947;116;922622;-70
2021/06/07 03:58:36;;;;;;;11.95;7.46;;;;;;;16.90;67.31;100374.27;448619;116;922622;-69
2021/06/07 03:59:39;;;;;;;12.59;7.24;;;;;;;16.92;67.30;100372.94;451126;115;930628;-70
2021/06/07 04:00:43;;;;;;;10.28;6.66;;;;;;;16.94;67.31;100370.73;451845;115;930785;-70
2021/06/07 04:01:47;;;;;;;9.82;6.39;;;;;;;16.96;67.21;100375.98;451916;114;922999;-69
2021/06/07 04:02:51;;;;;;;6.78;6.16;;;;;;;16.99;67.15;100383.71;452257;115;922378;-70
2021/06/07 04:03:54;;;;;;;16.25;6.42;;;;;;;17.00;67.07;100377.95;452296;116;922921;-69
2021/06/07 04:04:58;;;;;;;8.88;5.08;;;;;;;17.03;67.00;100377.44;451758;115;930116;-68
2021/06/07 04:06:02;;;;;;;6.37;4.93;;;;;;;17.05;66.88;100371.65;452506;114;925248;-70
2021/06/07 04:07:06;;;;;;;8.13;4.58;;;;;;;17.06;66.74;100368.64;452485;116;931995;-70
2021/06/07 04:08:11;;;;;;;7.02;4.41;;;;;;;17.08;66.71;100376.65;452372;116;925240;-69
2021/06/07 04:09:15;;;;;;;5.86;4.20;;;;;;;17.09;66.70;100372.81;453306;115;925029;-69
2021/06/07 04:10:22;;;;;;;4.84;3.97;;;;;;;17.11;66.82;100376.11;453082;114;922448;-71
2021/06/07 04:11:26;;;;;;;6.34;4.02;;;;;;;17.13;66.75;100379.45;452890;115;925738;-70
2021/06/07 04:12:31;;;;;;;5.46;3.54;;;;;;;17.16;66.82;100383.58;452216;116;923976;-71
2021/06/07 04:13:35;;;;;;;6.68;3.68;;;;;;;17.19;66.84;100377.56;450209;114;924666;-69
2021/06/07 04:14:39;;;;;;;6.22;3.66;;;;;;;17.19;66.84;100375.64;449380;115;931964;-69
2021/06/07 04:15:44;;;;;;;5.33;3.38;;;;;;;17.22;66.78;100382.53;448277;116;925924;-70
2021/06/07 04:16:48;;;;;;;5.08;2.95;;;;;;;17.25;66.74;100377.34;449981;114;922701;-69
2021/06/07 04:17:53;;;;;;;4.99;3.01;;;;;;;17.28;66.75;100386.99;450874;114;925472;-70
2021/06/07 04:18:57;;;;;;;7.62;3.14;;;;;;;17.31;66.78;100386.48;450413;116;925407;-67
2021/06/07 04:20:02;;;;;;;5.70;3.09;;;;;;;17.34;66.66;100386.77;449652;116;923021;-69
2021/06/07 04:21:06;;;;;;;7.25;3.22;;;;;;;17.38;66.58;100384.31;451012;116;922522;-68
2021/06/07 04:22:09;;;;;;;6.10;2.86;;;;;;;17.42;66.42;100383.52;451881;115;922797;-68
2021/06/07 04:23:13;;;;;;;3.74;3.40;;;;;;;17.44;66.33;100386.84;451259;115;931994;-68
2021/06/07 04:24:17;;;;;;;3.74;3.04;;;;;;;17.47;66.24;100385.50;452619;115;923050;-70
2021/06/07 04:25:23;;;;;;;5.52;2.94;;;;;;;17.48;66.20;100387.14;445015;117;924606;-69
2021/06/07 04:26:28;;;;;;;6.64;2.73;;;;;;;17.50;66.17;100385.79;454619;114;930510;-69
2021/06/07 04:27:33;;;;;;;6.78;3.22;;;;;;;17.53;66.13;100390.76;452477;115;922863;-70
2021/06/07 04:28:39;;;;;;;5.90;2.98;;;;;;;17.55;66.08;100382.23;453260;115;924432;-70
2021/06/07 04:29:44;;;;;;;9.72;3.57;;;;;;;17.58;66.15;100380.88;454011;115;924789;-68
2021/06/07 04:30:48;;;;;;;4.72;2.91;;;;;;;17.59;66.21;100383.35;454145;114;922635;-69
2021/06/07 04:31:51;;;;;;;5.66;3.16;;;;;;;17.60;66.12;100389.73;454386;115;926396;-68
2021/06/07 04:32:57;;;;;;;6.75;2.76;;;;;;;17.61;66.19;100389.48;454761;114;926100;-69
2021/06/07 04:34:01;;;;;;;3.37;2.69;;;;;;;17.63;66.20;100389.22;453919;115;924533;-70
2021/06/07 04:35:07;;;;;;;6.41;3.04;;;;;;;17.67;66.17;100390.34;453640;114;922533;-69
2021/06/07 04:36:12;;;;;;;4.52;2.91;;;;;;;17.72;66.07;100384.85;452701;114;924000;-69
2021/06/07 04:37:16;;;;;;;3.40;2.83;;;;;;;17.75;65.88;100393.41;444046;118;924036;-68
2021/06/07 04:38:20;;;;;;;4.11;2.77;;;;;;;17.78;65.74;100381.03;453810;114;923307;-68
2021/06/07 04:39:24;;;;;;;5.63;2.71;;;;;;;17.80;65.68;100398.16;445700;116;925995;-71
2021/06/07 04:40:33;;;;;;;6.43;3.11;;;;;;;17.83;65.55;100397.61;447194;115;922625;-71
2021/06/07 04:41:38;;;;;;;5.72;2.70;;;;;;;17.85;65.45;100399.02;453730;115;924167;-70
2021/06/07 04:42:43;;;;;;;4.67;2.83;;;;;;;17.86;65.56;100397.89;455407;115;926163;-69
2021/06/07 04:43:47;;;;;;;4.16;2.82;;;;;;;17.88;65.54;100401.22;453886;114;922837;-68
2021/06/07 04:44:51;;;;;;;6.32;3.15;;;;;;;17.90;65.52;100404.56;454175;114;923046;-69
2021/06/07 04:45:55;;;;;;;14.65;4.09;;;;;;;17.92;65.68;100405.10;454303;115;923018;-70
2021/06/07 04:46:59;;;;;;;6.87;4.16;;;;;;;17.94;65.50;100393.81;453198;114;930431;-69
2021/06/07 04:48:03;;;;;;;14.59;3.88;;;;;;;17.97;65.29;100401.56;454354;114;922425;-69
2021/06/07 04:49:06;;;;;;;5.56;3.22;;;;;;;18.00;65.20;100402.94;453409;114;922971;-69
2021/06/07 04:50:12;;;;;;;5.40;3.42;;;;;;;18.01;65.13;100396.33;454647;115;922469;-70
2021/06/07 04:51:15;;;;;;;4.05;3.04;;;;;;;18.03;65.09;100394.14;446958;116;922813;-71
2021/06/07 04:52:19;;;;;;;5.89;3.49;;;;;;;18.04;64.97;100391.09;445044;116;930603;-70
2021/06/07 04:53:23;;;;;;;8.70;3.38;;;;;;;18.05;64.96;100401.04;453721;114;930528;-68
2021/06/07 04:54:26;;;;;;;6.99;3.27;;;;;;;18.07;65.11;100403.53;454585;115;930659;-68
2021/06/07 04:55:42;;;;;;;4.43;2.72;;;;;;;18.07;65.15;100406.30;454866;113;931093;-69
2021/06/07 04:56:46;;;;;;;6.22;3.12;;;;;;;18.07;65.23;100401.61;449112;114;922797;-69
2021/06/07 04:57:50;;;;;;;7.13;3.34;;;;;;;18.06;65.31;100410.98;452548;114;922631;-70
2021/06/07 04:58:54;;;;;;;7.29;3.34;;;;;;;18.06;65.42;100408.22;444911;118;922266;-69